sensor_id;sensor_type;location;lat;lon;timestamp;P1;durP1;ratioP1;P2;durP2;ratioP2
78646;SDS011;67961;43.460;3.762;2023-05-20T00:01:23;5.43;;;3.60;;
78646;SDS011;67961;43.460;3.762;2023-05-20T00:03:49;7.50;;;3.83;;
78646;SDS011;67961;43.460;3.762;2023-05-20T00:06:15;8.32;;;4.40;;
78646;SDS011;67961;43.460;3.762;2023-05-20T00:08:41;5.03;;;3.97;;
78646;SDS011;67961;43.460;3.762;2023-05-20T00:11:06;6.75;;;4.80;;
78646;SDS011;67961;43.460;3.762;2023-05-20T00:13:32;6.82;;;4.30;;
78646;SDS011;67961;43.460;3.762;2023-05-20T00:16:00;6.30;;;3.92;;
78646;SDS011;67961;43.460;3.762;2023-05-20T00:18:25;8.38;;;4.00;;
78646;SDS011;67961;43.460;3.762;2023-05-20T00:20:51;6.97;;;4.15;;
78646;SDS011;67961;43.460;3.762;2023-05-20T00:23:18;5.63;;;4.07;;
78646;SDS011;67961;43.460;3.762;2023-05-20T00:25:44;6.03;;;3.72;;
78646;SDS011;67961;43.460;3.762;2023-05-20T00:28:09;5.75;;;3.50;;
78646;SDS011;67961;43.460;3.762;2023-05-20T00:30:37;9.20;;;4.22;;
78646;SDS011;67961;43.460;3.762;2023-05-20T00:33:06;5.10;;;3.42;;
78646;SDS011;67961;43.460;3.762;2023-05-20T00:35:32;6.45;;;4.07;;
78646;SDS011;67961;43.460;3.762;2023-05-20T00:37:58;7.50;;;3.63;;
78646;SDS011;67961;43.460;3.762;2023-05-20T00:40:23;6.63;;;3.40;;
78646;SDS011;67961;43.460;3.762;2023-05-20T00:42:49;6.13;;;3.45;;
78646;SDS011;67961;43.460;3.762;2023-05-20T00:45:15;5.00;;;3.63;;
78646;SDS011;67961;43.460;3.762;2023-05-20T00:47:41;6.75;;;3.65;;
78646;SDS011;67961;43.460;3.762;2023-05-20T00:50:07;7.05;;;3.95;;
78646;SDS011;67961;43.460;3.762;2023-05-20T00:52:34;5.53;;;3.70;;
78646;SDS011;67961;43.460;3.762;2023-05-20T00:55:01;6.60;;;3.42;;
78646;SDS011;67961;43.460;3.762;2023-05-20T00:57:27;6.45;;;3.85;;
78646;SDS011;67961;43.460;3.762;2023-05-20T00:59:53;4.88;;;3.60;;
78646;SDS011;67961;43.460;3.762;2023-05-20T01:02:20;5.95;;;3.78;;
78646;SDS011;67961;43.460;3.762;2023-05-20T01:04:45;4.93;;;3.40;;
78646;SDS011;67961;43.460;3.762;2023-05-20T01:07:12;6.05;;;3.78;;
78646;SDS011;67961;43.460;3.762;2023-05-20T01:09:40;6.15;;;3.85;;
78646;SDS011;67961;43.460;3.762;2023-05-20T01:12:15;7.60;;;4.65;;
78646;SDS011;67961;43.460;3.762;2023-05-20T01:14:49;6.32;;;4.07;;
78646;SDS011;67961;43.460;3.762;2023-05-20T01:17:30;5.90;;;4.05;;
78646;SDS011;67961;43.460;3.762;2023-05-20T01:19:59;7.65;;;3.95;;
78646;SDS011;67961;43.460;3.762;2023-05-20T01:22:26;7.53;;;4.38;;
78646;SDS011;67961;43.460;3.762;2023-05-20T01:24:53;7.97;;;4.72;;
78646;SDS011;67961;43.460;3.762;2023-05-20T01:27:19;6.88;;;4.47;;
78646;SDS011;67961;43.460;3.762;2023-05-20T01:29:46;5.68;;;4.03;;
78646;SDS011;67961;43.460;3.762;2023-05-20T01:34:47;7.93;;;4.40;;
78646;SDS011;67961;43.460;3.762;2023-05-20T01:37:14;9.07;;;4.63;;
78646;SDS011;67961;43.460;3.762;2023-05-20T01:39:41;5.30;;;4.07;;
78646;SDS011;67961;43.460;3.762;2023-05-20T01:42:08;8.13;;;4.00;;
78646;SDS011;67961;43.460;3.762;2023-05-20T01:44:34;5.95;;;4.05;;
78646;SDS011;67961;43.460;3.762;2023-05-20T01:47:00;9.05;;;4.05;;
78646;SDS011;67961;43.460;3.762;2023-05-20T01:49:26;5.75;;;3.97;;
78646;SDS011;67961;43.460;3.762;2023-05-20T01:51:52;6.63;;;3.95;;
78646;SDS011;67961;43.460;3.762;2023-05-20T01:54:18;5.18;;;3.22;;
78646;SDS011;67961;43.460;3.762;2023-05-20T01:56:44;8.95;;;3.88;;
78646;SDS011;67961;43.460;3.762;2023-05-20T01:59:10;6.88;;;3.65;;
78646;SDS011;67961;43.460;3.762;2023-05-20T02:01:36;4.65;;;3.40;;
78646;SDS011;67961;43.460;3.762;2023-05-20T02:04:02;7.53;;;3.75;;
78646;SDS011;67961;43.460;3.762;2023-05-20T02:06:28;7.18;;;4.03;;
78646;SDS011;67961;43.460;3.762;2023-05-20T02:08:53;5.45;;;3.80;;
78646;SDS011;67961;43.460;3.762;2023-05-20T02:11:19;5.57;;;3.90;;
78646;SDS011;67961;43.460;3.762;2023-05-20T02:13:45;5.85;;;3.92;;
78646;SDS011;67961;43.460;3.762;2023-05-20T02:16:11;5.95;;;4.10;;
78646;SDS011;67961;43.460;3.762;2023-05-20T02:18:37;7.97;;;3.40;;
78646;SDS011;67961;43.460;3.762;2023-05-20T02:21:03;7.47;;;3.70;;
78646;SDS011;67961;43.460;3.762;2023-05-20T02:23:29;6.97;;;4.03;;
78646;SDS011;67961;43.460;3.762;2023-05-20T02:25:55;11.00;;;3.90;;
78646;SDS011;67961;43.460;3.762;2023-05-20T02:28:21;9.07;;;3.28;;
78646;SDS011;67961;43.460;3.762;2023-05-20T02:30:47;5.13;;;3.22;;
78646;SDS011;67961;43.460;3.762;2023-05-20T02:33:15;5.25;;;3.60;;
78646;SDS011;67961;43.460;3.762;2023-05-20T02:35:41;5.82;;;3.58;;
78646;SDS011;67961;43.460;3.762;2023-05-20T02:38:07;4.20;;;3.50;;
78646;SDS011;67961;43.460;3.762;2023-05-20T02:40:32;6.43;;;3.70;;
78646;SDS011;67961;43.460;3.762;2023-05-20T02:42:58;6.90;;;3.55;;
78646;SDS011;67961;43.460;3.762;2023-05-20T02:45:25;5.45;;;3.67;;
78646;SDS011;67961;43.460;3.762;2023-05-20T02:47:51;5.13;;;3.33;;
78646;SDS011;67961;43.460;3.762;2023-05-20T02:50:17;7.50;;;3.83;;
78646;SDS011;67961;43.460;3.762;2023-05-20T02:52:42;7.35;;;3.22;;
78646;SDS011;67961;43.460;3.762;2023-05-20T02:55:09;6.95;;;3.63;;
78646;SDS011;67961;43.460;3.762;2023-05-20T02:57:35;5.10;;;3.45;;
78646;SDS011;67961;43.460;3.762;2023-05-20T03:00:04;6.07;;;3.38;;
78646;SDS011;67961;43.460;3.762;2023-05-20T03:02:31;4.85;;;3.40;;
78646;SDS011;67961;43.460;3.762;2023-05-20T03:04:58;5.18;;;3.58;;
78646;SDS011;67961;43.460;3.762;2023-05-20T03:07:24;6.93;;;3.67;;
78646;SDS011;67961;43.460;3.762;2023-05-20T03:09:50;11.13;;;3.67;;
78646;SDS011;67961;43.460;3.762;2023-05-20T03:12:16;6.47;;;3.72;;
78646;SDS011;67961;43.460;3.762;2023-05-20T03:14:42;5.57;;;3.10;;
78646;SDS011;67961;43.460;3.762;2023-05-20T03:17:08;6.78;;;2.88;;
78646;SDS011;67961;43.460;3.762;2023-05-20T03:19:35;4.75;;;3.15;;
78646;SDS011;67961;43.460;3.762;2023-05-20T03:22:01;8.65;;;4.07;;
78646;SDS011;67961;43.460;3.762;2023-05-20T03:24:27;5.35;;;3.55;;
78646;SDS011;67961;43.460;3.762;2023-05-20T03:26:53;5.82;;;3.03;;
78646;SDS011;67961;43.460;3.762;2023-05-20T03:29:20;5.60;;;3.22;;
78646;SDS011;67961;43.460;3.762;2023-05-20T03:31:46;4.82;;;2.97;;
78646;SDS011;67961;43.460;3.762;2023-05-20T03:34:12;5.80;;;3.35;;
78646;SDS011;67961;43.460;3.762;2023-05-20T03:36:38;8.50;;;3.63;;
78646;SDS011;67961;43.460;3.762;2023-05-20T03:39:03;5.20;;;3.60;;
78646;SDS011;67961;43.460;3.762;2023-05-20T03:41:29;4.60;;;3.25;;
78646;SDS011;67961;43.460;3.762;2023-05-20T03:43:55;4.88;;;3.17;;
78646;SDS011;67961;43.460;3.762;2023-05-20T03:46:21;6.20;;;3.33;;
78646;SDS011;67961;43.460;3.762;2023-05-20T03:48:47;4.72;;;2.83;;
78646;SDS011;67961;43.460;3.762;2023-05-20T03:51:12;5.72;;;3.50;;
78646;SDS011;67961;43.460;3.762;2023-05-20T03:53:38;5.55;;;3.13;;
78646;SDS011;67961;43.460;3.762;2023-05-20T03:56:04;6.05;;;2.97;;
78646;SDS011;67961;43.460;3.762;2023-05-20T03:58:29;6.32;;;3.08;;
78646;SDS011;67961;43.460;3.762;2023-05-20T04:00:55;9.77;;;5.13;;
78646;SDS011;67961;43.460;3.762;2023-05-20T04:03:22;12.07;;;8.30;;
78646;SDS011;67961;43.460;3.762;2023-05-20T04:05:48;9.68;;;5.57;;
78646;SDS011;67961;43.460;3.762;2023-05-20T04:08:14;9.43;;;4.75;;
78646;SDS011;67961;43.460;3.762;2023-05-20T04:10:40;8.13;;;3.42;;
78646;SDS011;67961;43.460;3.762;2023-05-20T04:13:06;8.63;;;4.22;;
78646;SDS011;67961;43.460;3.762;2023-05-20T04:15:35;9.52;;;4.38;;
78646;SDS011;67961;43.460;3.762;2023-05-20T04:18:02;6.15;;;3.95;;
78646;SDS011;67961;43.460;3.762;2023-05-20T04:20:29;8.20;;;3.97;;
78646;SDS011;67961;43.460;3.762;2023-05-20T04:22:55;6.53;;;3.45;;
78646;SDS011;67961;43.460;3.762;2023-05-20T04:25:21;7.18;;;3.67;;
78646;SDS011;67961;43.460;3.762;2023-05-20T04:27:46;5.40;;;3.10;;
78646;SDS011;67961;43.460;3.762;2023-05-20T04:30:13;9.38;;;3.35;;
78646;SDS011;67961;43.460;3.762;2023-05-20T04:32:42;6.00;;;3.35;;
78646;SDS011;67961;43.460;3.762;2023-05-20T04:35:07;7.07;;;3.55;;
78646;SDS011;67961;43.460;3.762;2023-05-20T04:37:35;5.60;;;3.13;;
78646;SDS011;67961;43.460;3.762;2023-05-20T04:40:02;4.90;;;3.65;;
78646;SDS011;67961;43.460;3.762;2023-05-20T04:42:28;8.13;;;3.53;;
78646;SDS011;67961;43.460;3.762;2023-05-20T04:44:54;5.03;;;3.33;;
78646;SDS011;67961;43.460;3.762;2023-05-20T04:47:20;6.32;;;3.58;;
78646;SDS011;67961;43.460;3.762;2023-05-20T04:49:45;4.68;;;3.22;;
78646;SDS011;67961;43.460;3.762;2023-05-20T04:52:11;5.35;;;3.20;;
78646;SDS011;67961;43.460;3.762;2023-05-20T04:54:37;5.78;;;3.10;;
78646;SDS011;67961;43.460;3.762;2023-05-20T04:57:04;6.15;;;3.30;;
78646;SDS011;67961;43.460;3.762;2023-05-20T04:59:30;5.20;;;3.00;;
78646;SDS011;67961;43.460;3.762;2023-05-20T05:01:56;3.85;;;2.88;;
78646;SDS011;67961;43.460;3.762;2023-05-20T05:04:21;5.22;;;3.17;;
78646;SDS011;67961;43.460;3.762;2023-05-20T05:06:47;3.92;;;2.72;;
78646;SDS011;67961;43.460;3.762;2023-05-20T05:09:13;4.47;;;2.90;;
78646;SDS011;67961;43.460;3.762;2023-05-20T05:11:39;6.60;;;2.90;;
78646;SDS011;67961;43.460;3.762;2023-05-20T05:14:05;4.72;;;2.85;;
78646;SDS011;67961;43.460;3.762;2023-05-20T05:16:30;4.65;;;2.78;;
78646;SDS011;67961;43.460;3.762;2023-05-20T05:18:56;5.30;;;2.55;;
78646;SDS011;67961;43.460;3.762;2023-05-20T05:21:22;5.65;;;3.08;;
78646;SDS011;67961;43.460;3.762;2023-05-20T05:23:47;5.55;;;2.65;;
78646;SDS011;67961;43.460;3.762;2023-05-20T05:26:13;3.88;;;2.47;;
78646;SDS011;67961;43.460;3.762;2023-05-20T05:28:40;4.68;;;2.40;;
78646;SDS011;67961;43.460;3.762;2023-05-20T05:31:07;5.97;;;2.90;;
78646;SDS011;67961;43.460;3.762;2023-05-20T05:33:33;4.80;;;2.40;;
78646;SDS011;67961;43.460;3.762;2023-05-20T05:35:58;3.17;;;2.35;;
78646;SDS011;67961;43.460;3.762;2023-05-20T05:38:25;6.25;;;3.10;;
78646;SDS011;67961;43.460;3.762;2023-05-20T05:40:51;5.47;;;2.63;;
78646;SDS011;67961;43.460;3.762;2023-05-20T05:43:17;4.57;;;2.40;;
78646;SDS011;67961;43.460;3.762;2023-05-20T05:45:43;4.95;;;2.83;;
78646;SDS011;67961;43.460;3.762;2023-05-20T05:48:08;4.75;;;2.60;;
78646;SDS011;67961;43.460;3.762;2023-05-20T05:50:34;3.60;;;2.60;;
78646;SDS011;67961;43.460;3.762;2023-05-20T05:53:00;5.43;;;2.70;;
78646;SDS011;67961;43.460;3.762;2023-05-20T05:55:25;5.88;;;2.60;;
78646;SDS011;67961;43.460;3.762;2023-05-20T05:57:51;4.68;;;2.58;;
78646;SDS011;67961;43.460;3.762;2023-05-20T06:00:17;4.35;;;2.40;;
78646;SDS011;67961;43.460;3.762;2023-05-20T06:02:42;8.40;;;3.03;;
78646;SDS011;67961;43.460;3.762;2023-05-20T06:05:08;5.97;;;3.00;;
78646;SDS011;67961;43.460;3.762;2023-05-20T06:07:34;4.35;;;2.80;;
78646;SDS011;67961;43.460;3.762;2023-05-20T06:10:00;7.82;;;2.83;;
78646;SDS011;67961;43.460;3.762;2023-05-20T06:12:25;4.30;;;2.30;;
78646;SDS011;67961;43.460;3.762;2023-05-20T06:14:51;3.13;;;2.38;;
78646;SDS011;67961;43.460;3.762;2023-05-20T06:17:17;5.32;;;2.70;;
78646;SDS011;67961;43.460;3.762;2023-05-20T06:19:42;4.85;;;2.75;;
78646;SDS011;67961;43.460;3.762;2023-05-20T06:22:08;3.25;;;2.28;;
78646;SDS011;67961;43.460;3.762;2023-05-20T06:24:33;4.05;;;2.17;;
78646;SDS011;67961;43.460;3.762;2023-05-20T06:26:59;4.53;;;2.50;;
78646;SDS011;67961;43.460;3.762;2023-05-20T06:29:25;4.35;;;2.30;;
78646;SDS011;67961;43.460;3.762;2023-05-20T06:31:52;4.53;;;2.63;;
78646;SDS011;67961;43.460;3.762;2023-05-20T06:34:18;5.03;;;2.20;;
78646;SDS011;67961;43.460;3.762;2023-05-20T06:36:44;3.47;;;2.17;;
78646;SDS011;67961;43.460;3.762;2023-05-20T06:39:09;2.50;;;1.95;;
78646;SDS011;67961;43.460;3.762;2023-05-20T06:41:37;5.10;;;2.28;;
78646;SDS011;67961;43.460;3.762;2023-05-20T06:44:05;3.28;;;2.70;;
78646;SDS011;67961;43.460;3.762;2023-05-20T06:46:32;4.32;;;2.28;;
78646;SDS011;67961;43.460;3.762;2023-05-20T06:48:58;4.57;;;2.47;;
78646;SDS011;67961;43.460;3.762;2023-05-20T06:51:24;4.07;;;2.45;;
78646;SDS011;67961;43.460;3.762;2023-05-20T06:53:51;3.17;;;2.20;;
78646;SDS011;67961;43.460;3.762;2023-05-20T06:56:16;2.55;;;2.15;;
78646;SDS011;67961;43.460;3.762;2023-05-20T06:58:42;4.25;;;2.85;;
78646;SDS011;67961;43.460;3.762;2023-05-20T07:01:08;3.80;;;2.70;;
78646;SDS011;67961;43.460;3.762;2023-05-20T07:03:33;3.55;;;2.30;;
78646;SDS011;67961;43.460;3.762;2023-05-20T07:05:59;4.20;;;2.40;;
78646;SDS011;67961;43.460;3.762;2023-05-20T07:08:25;3.53;;;2.28;;
78646;SDS011;67961;43.460;3.762;2023-05-20T07:10:50;2.95;;;2.15;;
78646;SDS011;67961;43.460;3.762;2023-05-20T07:13:16;4.57;;;2.60;;
78646;SDS011;67961;43.460;3.762;2023-05-20T07:15:44;2.88;;;2.20;;
78646;SDS011;67961;43.460;3.762;2023-05-20T07:18:11;3.88;;;2.50;;
78646;SDS011;67961;43.460;3.762;2023-05-20T07:20:37;4.10;;;2.47;;
78646;SDS011;67961;43.460;3.762;2023-05-20T07:23:02;3.97;;;2.50;;
78646;SDS011;67961;43.460;3.762;2023-05-20T07:25:28;3.42;;;2.42;;
78646;SDS011;67961;43.460;3.762;2023-05-20T07:27:54;4.15;;;2.35;;
78646;SDS011;67961;43.460;3.762;2023-05-20T07:30:19;4.07;;;2.42;;
78646;SDS011;67961;43.460;3.762;2023-05-20T07:32:45;4.72;;;2.45;;
78646;SDS011;67961;43.460;3.762;2023-05-20T07:35:11;4.50;;;2.28;;
78646;SDS011;67961;43.460;3.762;2023-05-20T07:37:36;2.42;;;2.17;;
78646;SDS011;67961;43.460;3.762;2023-05-20T07:40:02;4.53;;;2.47;;
78646;SDS011;67961;43.460;3.762;2023-05-20T07:42:29;4.63;;;2.50;;
78646;SDS011;67961;43.460;3.762;2023-05-20T07:44:55;4.43;;;2.22;;
78646;SDS011;67961;43.460;3.762;2023-05-20T07:47:20;4.22;;;2.65;;
78646;SDS011;67961;43.460;3.762;2023-05-20T07:49:46;4.18;;;2.20;;
78646;SDS011;67961;43.460;3.762;2023-05-20T07:52:12;2.67;;;2.13;;
78646;SDS011;67961;43.460;3.762;2023-05-20T07:54:37;4.45;;;2.45;;
78646;SDS011;67961;43.460;3.762;2023-05-20T07:57:03;3.88;;;2.30;;
78646;SDS011;67961;43.460;3.762;2023-05-20T07:59:29;5.70;;;2.00;;
78646;SDS011;67961;43.460;3.762;2023-05-20T08:01:54;2.90;;;1.90;;
78646;SDS011;67961;43.460;3.762;2023-05-20T08:04:20;3.78;;;1.75;;
78646;SDS011;67961;43.460;3.762;2023-05-20T08:06:46;2.88;;;1.85;;
78646;SDS011;67961;43.460;3.762;2023-05-20T08:09:11;2.40;;;1.90;;
78646;SDS011;67961;43.460;3.762;2023-05-20T08:11:37;2.25;;;1.52;;
78646;SDS011;67961;43.460;3.762;2023-05-20T08:14:03;2.13;;;1.90;;
78646;SDS011;67961;43.460;3.762;2023-05-20T08:16:28;4.47;;;2.13;;
78646;SDS011;67961;43.460;3.762;2023-05-20T08:18:54;2.00;;;1.80;;
78646;SDS011;67961;43.460;3.762;2023-05-20T08:21:20;5.05;;;2.10;;
78646;SDS011;67961;43.460;3.762;2023-05-20T08:23:46;2.40;;;1.73;;
78646;SDS011;67961;43.460;3.762;2023-05-20T08:26:11;3.60;;;2.13;;
78646;SDS011;67961;43.460;3.762;2023-05-20T08:28:37;5.30;;;2.10;;
78646;SDS011;67961;43.460;3.762;2023-05-20T08:31:03;2.45;;;2.03;;
78646;SDS011;67961;43.460;3.762;2023-05-20T08:33:29;3.10;;;2.03;;
78646;SDS011;67961;43.460;3.762;2023-05-20T08:35:55;3.47;;;2.10;;
78646;SDS011;67961;43.460;3.762;2023-05-20T08:38:20;2.67;;;1.83;;
78646;SDS011;67961;43.460;3.762;2023-05-20T08:40:50;3.50;;;2.38;;
78646;SDS011;67961;43.460;3.762;2023-05-20T08:43:17;6.18;;;3.80;;
78646;SDS011;67961;43.460;3.762;2023-05-20T08:45:44;4.63;;;2.67;;
78646;SDS011;67961;43.460;3.762;2023-05-20T08:48:09;3.60;;;2.60;;
78646;SDS011;67961;43.460;3.762;2023-05-20T08:50:35;4.43;;;2.53;;
78646;SDS011;67961;43.460;3.762;2023-05-20T08:53:01;3.10;;;2.10;;
78646;SDS011;67961;43.460;3.762;2023-05-20T08:55:32;4.10;;;2.50;;
78646;SDS011;67961;43.460;3.762;2023-05-20T08:58:01;2.47;;;2.10;;
78646;SDS011;67961;43.460;3.762;2023-05-20T09:00:27;2.70;;;1.95;;
78646;SDS011;67961;43.460;3.762;2023-05-20T09:02:53;2.85;;;2.13;;
78646;SDS011;67961;43.460;3.762;2023-05-20T09:05:19;2.72;;;2.08;;
78646;SDS011;67961;43.460;3.762;2023-05-20T09:07:46;3.55;;;2.30;;
78646;SDS011;67961;43.460;3.762;2023-05-20T09:10:12;3.08;;;1.88;;
78646;SDS011;67961;43.460;3.762;2023-05-20T09:12:38;4.75;;;2.30;;
78646;SDS011;67961;43.460;3.762;2023-05-20T09:15:04;2.72;;;1.92;;
78646;SDS011;67961;43.460;3.762;2023-05-20T09:17:31;2.85;;;2.00;;
78646;SDS011;67961;43.460;3.762;2023-05-20T09:19:59;2.90;;;2.40;;
78646;SDS011;67961;43.460;3.762;2023-05-20T09:22:25;4.32;;;2.25;;
78646;SDS011;67961;43.460;3.762;2023-05-20T09:24:52;3.70;;;2.08;;
78646;SDS011;67961;43.460;3.762;2023-05-20T09:27:18;4.30;;;2.10;;
78646;SDS011;67961;43.460;3.762;2023-05-20T09:29:48;1.80;;;1.58;;
78646;SDS011;67961;43.460;3.762;2023-05-20T09:32:14;2.75;;;1.90;;
78646;SDS011;67961;43.460;3.762;2023-05-20T09:34:40;2.42;;;1.92;;
78646;SDS011;67961;43.460;3.762;2023-05-20T09:37:07;3.05;;;2.08;;
78646;SDS011;67961;43.460;3.762;2023-05-20T09:39:36;4.72;;;2.55;;
78646;SDS011;67961;43.460;3.762;2023-05-20T09:42:21;2.28;;;2.05;;
78646;SDS011;67961;43.460;3.762;2023-05-20T09:44:53;4.40;;;2.15;;
78646;SDS011;67961;43.460;3.762;2023-05-20T09:47:20;4.60;;;2.45;;
78646;SDS011;67961;43.460;3.762;2023-05-20T09:49:49;4.00;;;2.30;;
78646;SDS011;67961;43.460;3.762;2023-05-20T09:52:16;5.95;;;2.42;;
78646;SDS011;67961;43.460;3.762;2023-05-20T09:54:43;3.33;;;2.10;;
78646;SDS011;67961;43.460;3.762;2023-05-20T09:57:09;3.33;;;2.15;;
78646;SDS011;67961;43.460;3.762;2023-05-20T09:59:36;4.05;;;2.53;;
78646;SDS011;67961;43.460;3.762;2023-05-20T10:02:03;4.03;;;2.90;;
78646;SDS011;67961;43.460;3.762;2023-05-20T10:04:31;4.93;;;3.22;;
78646;SDS011;67961;43.460;3.762;2023-05-20T10:07:12;5.15;;;2.63;;
78646;SDS011;67961;43.460;3.762;2023-05-20T10:15:58;4.40;;;2.78;;
78646;SDS011;67961;43.460;3.762;2023-05-20T10:21:33;3.50;;;2.58;;
78646;SDS011;67961;43.460;3.762;2023-05-20T10:24:09;4.35;;;2.70;;
78646;SDS011;67961;43.460;3.762;2023-05-20T10:26:39;6.03;;;3.10;;
78646;SDS011;67961;43.460;3.762;2023-05-20T10:29:18;5.80;;;2.70;;
78646;SDS011;67961;43.460;3.762;2023-05-20T10:31:47;6.13;;;2.65;;
78646;SDS011;67961;43.460;3.762;2023-05-20T10:34:14;8.13;;;3.53;;
78646;SDS011;67961;43.460;3.762;2023-05-20T10:36:43;18.25;;;6.82;;
78646;SDS011;67961;43.460;3.762;2023-05-20T10:39:30;10.52;;;4.90;;
78646;SDS011;67961;43.460;3.762;2023-05-20T10:42:05;9.68;;;4.50;;
78646;SDS011;67961;43.460;3.762;2023-05-20T10:47:11;58.70;;;19.70;;
78646;SDS011;67961;43.460;3.762;2023-05-20T10:49:42;41.47;;;14.32;;
78646;SDS011;67961;43.460;3.762;2023-05-20T10:52:09;96.72;;;33.63;;
78646;SDS011;67961;43.460;3.762;2023-05-20T10:54:41;60.65;;;19.95;;
78646;SDS011;67961;43.460;3.762;2023-05-20T10:57:11;30.30;;;14.32;;
78646;SDS011;67961;43.460;3.762;2023-05-20T10:59:37;24.60;;;12.43;;
78646;SDS011;67961;43.460;3.762;2023-05-20T11:02:02;27.38;;;12.98;;
78646;SDS011;67961;43.460;3.762;2023-05-20T11:04:28;10.32;;;5.18;;
78646;SDS011;67961;43.460;3.762;2023-05-20T11:06:55;12.27;;;5.72;;
78646;SDS011;67961;43.460;3.762;2023-05-20T11:09:22;17.83;;;8.02;;
78646;SDS011;67961;43.460;3.762;2023-05-20T11:11:49;28.08;;;10.23;;
78646;SDS011;67961;43.460;3.762;2023-05-20T11:14:15;14.90;;;7.13;;
78646;SDS011;67961;43.460;3.762;2023-05-20T11:16:42;8.88;;;4.28;;
78646;SDS011;67961;43.460;3.762;2023-05-20T11:19:13;8.95;;;3.88;;
78646;SDS011;67961;43.460;3.762;2023-05-20T11:21:43;7.43;;;3.10;;
78646;SDS011;67961;43.460;3.762;2023-05-20T11:24:10;6.05;;;2.65;;
78646;SDS011;67961;43.460;3.762;2023-05-20T11:26:36;4.40;;;2.88;;
78646;SDS011;67961;43.460;3.762;2023-05-20T11:29:03;5.50;;;2.95;;
78646;SDS011;67961;43.460;3.762;2023-05-20T11:31:29;5.90;;;3.22;;
78646;SDS011;67961;43.460;3.762;2023-05-20T11:33:55;6.30;;;3.45;;
78646;SDS011;67961;43.460;3.762;2023-05-20T11:36:25;4.97;;;2.78;;
78646;SDS011;67961;43.460;3.762;2023-05-20T11:38:52;6.40;;;2.45;;
78646;SDS011;67961;43.460;3.762;2023-05-20T11:41:22;5.53;;;3.42;;
78646;SDS011;67961;43.460;3.762;2023-05-20T11:43:58;5.60;;;3.78;;
78646;SDS011;67961;43.460;3.762;2023-05-20T11:46:29;5.32;;;2.85;;
78646;SDS011;67961;43.460;3.762;2023-05-20T11:48:55;4.18;;;3.00;;
78646;SDS011;67961;43.460;3.762;2023-05-20T11:51:22;5.05;;;2.97;;
78646;SDS011;67961;43.460;3.762;2023-05-20T11:53:51;5.07;;;2.72;;
78646;SDS011;67961;43.460;3.762;2023-05-20T11:56:16;5.45;;;3.10;;
78646;SDS011;67961;43.460;3.762;2023-05-20T11:58:42;5.05;;;2.78;;
78646;SDS011;67961;43.460;3.762;2023-05-20T12:01:09;4.43;;;2.92;;
78646;SDS011;67961;43.460;3.762;2023-05-20T12:03:35;6.80;;;2.80;;
78646;SDS011;67961;43.460;3.762;2023-05-20T12:06:01;5.03;;;3.38;;
78646;SDS011;67961;43.460;3.762;2023-05-20T12:08:27;5.03;;;2.80;;
78646;SDS011;67961;43.460;3.762;2023-05-20T12:10:53;4.35;;;3.08;;
78646;SDS011;67961;43.460;3.762;2023-05-20T12:13:19;4.00;;;2.88;;
78646;SDS011;67961;43.460;3.762;2023-05-20T12:15:45;6.78;;;2.97;;
78646;SDS011;67961;43.460;3.762;2023-05-20T12:18:10;4.28;;;2.50;;
78646;SDS011;67961;43.460;3.762;2023-05-20T12:20:36;4.35;;;2.95;;
78646;SDS011;67961;43.460;3.762;2023-05-20T12:23:03;6.03;;;3.47;;
78646;SDS011;67961;43.460;3.762;2023-05-20T12:25:29;4.47;;;3.42;;
78646;SDS011;67961;43.460;3.762;2023-05-20T12:27:54;3.97;;;2.88;;
78646;SDS011;67961;43.460;3.762;2023-05-20T12:30:21;6.57;;;3.53;;
78646;SDS011;67961;43.460;3.762;2023-05-20T12:32:48;5.53;;;3.88;;
78646;SDS011;67961;43.460;3.762;2023-05-20T12:35:14;5.88;;;4.07;;
78646;SDS011;67961;43.460;3.762;2023-05-20T12:37:41;7.22;;;4.10;;
78646;SDS011;67961;43.460;3.762;2023-05-20T12:40:08;5.55;;;3.72;;
78646;SDS011;67961;43.460;3.762;2023-05-20T12:42:35;6.57;;;2.97;;
78646;SDS011;67961;43.460;3.762;2023-05-20T12:45:01;3.63;;;2.90;;
78646;SDS011;67961;43.460;3.762;2023-05-20T12:47:27;5.03;;;2.90;;
78646;SDS011;67961;43.460;3.762;2023-05-20T12:49:53;4.25;;;3.03;;
78646;SDS011;67961;43.460;3.762;2023-05-20T12:52:19;5.38;;;2.97;;
78646;SDS011;67961;43.460;3.762;2023-05-20T12:54:44;3.88;;;2.80;;
78646;SDS011;67961;43.460;3.762;2023-05-20T12:57:10;3.92;;;2.75;;
78646;SDS011;67961;43.460;3.762;2023-05-20T12:59:36;4.13;;;2.80;;
78646;SDS011;67961;43.460;3.762;2023-05-20T13:02:02;3.95;;;2.83;;
78646;SDS011;67961;43.460;3.762;2023-05-20T13:04:27;5.07;;;2.60;;
78646;SDS011;67961;43.460;3.762;2023-05-20T13:06:53;6.05;;;3.20;;
78646;SDS011;67961;43.460;3.762;2023-05-20T13:09:19;4.97;;;2.80;;
78646;SDS011;67961;43.460;3.762;2023-05-20T13:11:44;4.32;;;3.00;;
78646;SDS011;67961;43.460;3.762;2023-05-20T13:14:10;5.10;;;2.80;;
78646;SDS011;67961;43.460;3.762;2023-05-20T13:16:36;4.88;;;3.17;;
78646;SDS011;67961;43.460;3.762;2023-05-20T13:19:02;4.25;;;2.58;;
78646;SDS011;67961;43.460;3.762;2023-05-20T13:21:28;5.07;;;2.60;;
78646;SDS011;67961;43.460;3.762;2023-05-20T13:23:53;5.32;;;2.75;;
78646;SDS011;67961;43.460;3.762;2023-05-20T13:26:19;4.95;;;3.67;;
78646;SDS011;67961;43.460;3.762;2023-05-20T13:28:45;4.20;;;3.10;;
78646;SDS011;67961;43.460;3.762;2023-05-20T13:31:11;5.38;;;3.25;;
78646;SDS011;67961;43.460;3.762;2023-05-20T13:33:37;7.47;;;3.72;;
78646;SDS011;67961;43.460;3.762;2023-05-20T13:36:02;8.07;;;4.10;;
78646;SDS011;67961;43.460;3.762;2023-05-20T13:38:28;4.45;;;3.03;;
78646;SDS011;67961;43.460;3.762;2023-05-20T13:40:54;5.32;;;3.17;;
78646;SDS011;67961;43.460;3.762;2023-05-20T13:43:23;4.45;;;2.97;;
78646;SDS011;67961;43.460;3.762;2023-05-20T13:45:50;5.70;;;3.30;;
78646;SDS011;67961;43.460;3.762;2023-05-20T13:48:15;6.10;;;3.13;;
78646;SDS011;67961;43.460;3.762;2023-05-20T13:50:41;6.53;;;3.60;;
78646;SDS011;67961;43.460;3.762;2023-05-20T13:53:07;8.88;;;5.30;;
78646;SDS011;67961;43.460;3.762;2023-05-20T13:55:36;9.90;;;4.43;;
78646;SDS011;67961;43.460;3.762;2023-05-20T13:58:02;6.20;;;4.05;;
78646;SDS011;67961;43.460;3.762;2023-05-20T14:00:29;7.78;;;4.75;;
78646;SDS011;67961;43.460;3.762;2023-05-20T14:02:55;6.93;;;4.57;;
78646;SDS011;67961;43.460;3.762;2023-05-20T14:05:21;7.70;;;4.25;;
78646;SDS011;67961;43.460;3.762;2023-05-20T14:07:47;6.13;;;3.75;;
78646;SDS011;67961;43.460;3.762;2023-05-20T14:10:13;10.15;;;3.88;;
78646;SDS011;67961;43.460;3.762;2023-05-20T14:12:38;7.20;;;3.85;;
78646;SDS011;67961;43.460;3.762;2023-05-20T14:15:05;7.28;;;4.85;;
78646;SDS011;67961;43.460;3.762;2023-05-20T14:17:31;11.25;;;8.15;;
78646;SDS011;67961;43.460;3.762;2023-05-20T14:19:56;11.00;;;7.53;;
78646;SDS011;67961;43.460;3.762;2023-05-20T14:22:22;9.77;;;6.47;;
78646;SDS011;67961;43.460;3.762;2023-05-20T14:24:48;10.98;;;6.75;;
78646;SDS011;67961;43.460;3.762;2023-05-20T14:27:13;10.88;;;5.93;;
78646;SDS011;67961;43.460;3.762;2023-05-20T14:29:39;10.07;;;6.00;;
78646;SDS011;67961;43.460;3.762;2023-05-20T14:32:05;7.38;;;4.38;;
78646;SDS011;67961;43.460;3.762;2023-05-20T14:34:31;6.10;;;3.92;;
78646;SDS011;67961;43.460;3.762;2023-05-20T14:36:56;6.03;;;3.97;;
78646;SDS011;67961;43.460;3.762;2023-05-20T14:39:22;7.63;;;3.80;;
78646;SDS011;67961;43.460;3.762;2023-05-20T14:41:48;5.53;;;3.50;;
78646;SDS011;67961;43.460;3.762;2023-05-20T14:44:13;7.07;;;4.00;;
78646;SDS011;67961;43.460;3.762;2023-05-20T14:46:39;6.40;;;3.80;;
78646;SDS011;67961;43.460;3.762;2023-05-20T14:49:05;5.57;;;3.28;;
78646;SDS011;67961;43.460;3.762;2023-05-20T14:51:30;6.68;;;3.90;;
78646;SDS011;67961;43.460;3.762;2023-05-20T14:53:56;6.40;;;4.18;;
78646;SDS011;67961;43.460;3.762;2023-05-20T14:56:21;7.43;;;4.32;;